Terminal Aerodrome Forecast
Issued by NWS Duluth, MN

Home | Current Version | Previous Version | Text Only | Print | Product List | Glossary On
Versions: 1 2 3 4 5 6 7 8 9 10 11 12 13 14 15 16 17 18 19 20 21 22 23 24 25 26 27 28 29 30 31 32 33 34 35
813
FTUS43 KDLH 201720
TAFDLH
TAF
KDLH 201720Z 2018/2118 28012G22KT P6SM SCT010 BKN015
     FM201900 27012G20KT P6SM SCT015 BKN025
     FM202000 27012G20KT P6SM FEW040
     FM210000 26005KT P6SM SKC
     FM211100 11003KT P6SM FEW250
     FM211600 12008KT P6SM FEW250=

USA.gov is the U.S. government's official web portal to all federal, state and local government web resources and services.